sensor_id;sensor_type;location;lat;lon;timestamp;temperature;humidity
74792;SHT30;63319;46.046;17.802;2022-12-24T00:00:21;17.98;45.52
74792;SHT30;63319;46.046;17.802;2022-12-24T00:03:24;17.98;45.45
74792;SHT30;63319;46.046;17.802;2022-12-24T00:06:27;17.97;45.53
74792;SHT30;63319;46.046;17.802;2022-12-24T00:09:30;18.00;45.50
74792;SHT30;63319;46.046;17.802;2022-12-24T00:12:33;17.96;45.54
74792;SHT30;63319;46.046;17.802;2022-12-24T00:15:36;17.97;45.50
74792;SHT30;63319;46.046;17.802;2022-12-24T00:18:39;17.98;45.55
74792;SHT30;63319;46.046;17.802;2022-12-24T00:21:48;17.98;45.50
74792;SHT30;63319;46.046;17.802;2022-12-24T00:24:51;17.97;45.52
74792;SHT30;63319;46.046;17.802;2022-12-24T00:27:54;17.97;45.49
74792;SHT30;63319;46.046;17.802;2022-12-24T00:30:57;17.97;45.48
74792;SHT30;63319;46.046;17.802;2022-12-24T00:33:59;17.94;45.51
74792;SHT30;63319;46.046;17.802;2022-12-24T00:37:03;17.94;45.55
74792;SHT30;63319;46.046;17.802;2022-12-24T00:40:06;17.97;45.51
74792;SHT30;63319;46.046;17.802;2022-12-24T00:43:09;17.94;45.59
74792;SHT30;63319;46.046;17.802;2022-12-24T00:46:12;17.94;45.48
74792;SHT30;63319;46.046;17.802;2022-12-24T00:49:15;17.96;45.53
74792;SHT30;63319;46.046;17.802;2022-12-24T00:52:18;17.94;45.50
74792;SHT30;63319;46.046;17.802;2022-12-24T00:55:21;17.97;45.51
74792;SHT30;63319;46.046;17.802;2022-12-24T00:58:24;17.90;45.50
74792;SHT30;63319;46.046;17.802;2022-12-24T01:01:27;17.93;45.59
74792;SHT30;63319;46.046;17.802;2022-12-24T01:04:30;17.96;45.55
74792;SHT30;63319;46.046;17.802;2022-12-24T01:07:52;17.96;45.55
74792;SHT30;63319;46.046;17.802;2022-12-24T01:11:00;17.91;45.51
74792;SHT30;63319;46.046;17.802;2022-12-24T01:14:03;17.94;45.54
74792;SHT30;63319;46.046;17.802;2022-12-24T01:17:06;17.94;45.54
74792;SHT30;63319;46.046;17.802;2022-12-24T01:20:13;17.93;45.59
74792;SHT30;63319;46.046;17.802;2022-12-24T01:23:21;17.93;45.56
74792;SHT30;63319;46.046;17.802;2022-12-24T01:26:24;17.93;45.59
74792;SHT30;63319;46.046;17.802;2022-12-24T01:29:27;17.93;45.56
74792;SHT30;63319;46.046;17.802;2022-12-24T01:32:30;17.91;45.61
74792;SHT30;63319;46.046;17.802;2022-12-24T01:35:33;17.93;45.59
74792;SHT30;63319;46.046;17.802;2022-12-24T01:38:36;17.91;45.55
74792;SHT30;63319;46.046;17.802;2022-12-24T01:41:39;17.93;45.65
74792;SHT30;63319;46.046;17.802;2022-12-24T01:48:48;17.91;45.57
74792;SHT30;63319;46.046;17.802;2022-12-24T01:51:55;17.90;45.52
74792;SHT30;63319;46.046;17.802;2022-12-24T01:55:03;17.91;45.60
74792;SHT30;63319;46.046;17.802;2022-12-24T01:58:08;17.91;45.55
74792;SHT30;63319;46.046;17.802;2022-12-24T02:01:12;17.93;45.55
74792;SHT30;63319;46.046;17.802;2022-12-24T02:07:24;17.91;45.60
74792;SHT30;63319;46.046;17.802;2022-12-24T02:10:27;17.91;45.58
74792;SHT30;63319;46.046;17.802;2022-12-24T02:13:29;17.90;45.60
74792;SHT30;63319;46.046;17.802;2022-12-24T02:33:34;17.91;45.60
74792;SHT30;63319;46.046;17.802;2022-12-24T02:36:45;17.93;45.60
74792;SHT30;63319;46.046;17.802;2022-12-24T02:42:55;17.91;45.59
74792;SHT30;63319;46.046;17.802;2022-12-24T02:46:03;17.90;45.63
74792;SHT30;63319;46.046;17.802;2022-12-24T02:49:08;17.90;45.61
74792;SHT30;63319;46.046;17.802;2022-12-24T02:55:57;17.90;45.64
74792;SHT30;63319;46.046;17.802;2022-12-24T03:02:46;17.89;45.62
74792;SHT30;63319;46.046;17.802;2022-12-24T03:06:01;17.89;45.62
74792;SHT30;63319;46.046;17.802;2022-12-24T03:09:33;17.87;45.65
74792;SHT30;63319;46.046;17.802;2022-12-24T03:12:44;17.89;45.61
74792;SHT30;63319;46.046;17.802;2022-12-24T03:15:49;17.89;45.65
74792;SHT30;63319;46.046;17.802;2022-12-24T03:18:54;17.87;45.59
74792;SHT30;63319;46.046;17.802;2022-12-24T03:21:59;17.87;45.60
74792;SHT30;63319;46.046;17.802;2022-12-24T03:25:04;17.84;45.59
74792;SHT30;63319;46.046;17.802;2022-12-24T03:28:09;17.83;45.66
74792;SHT30;63319;46.046;17.802;2022-12-24T03:31:14;17.89;45.63
74792;SHT30;63319;46.046;17.802;2022-12-24T03:34:17;17.86;45.62
74792;SHT30;63319;46.046;17.802;2022-12-24T03:37:21;17.86;45.69
74792;SHT30;63319;46.046;17.802;2022-12-24T03:40:31;17.86;45.65
74792;SHT30;63319;46.046;17.802;2022-12-24T03:43:33;17.86;45.65
74792;SHT30;63319;46.046;17.802;2022-12-24T03:46:36;17.84;45.66
74792;SHT30;63319;46.046;17.802;2022-12-24T03:49:39;17.86;45.65
74792;SHT30;63319;46.046;17.802;2022-12-24T03:52:42;17.84;45.67
74792;SHT30;63319;46.046;17.802;2022-12-24T03:55:46;17.87;45.67
74792;SHT30;63319;46.046;17.802;2022-12-24T03:58:49;17.86;45.71
74792;SHT30;63319;46.046;17.802;2022-12-24T04:01:52;17.86;45.70
74792;SHT30;63319;46.046;17.802;2022-12-24T04:04:55;17.86;45.74
74792;SHT30;63319;46.046;17.802;2022-12-24T04:07:58;17.86;45.66
74792;SHT30;63319;46.046;17.802;2022-12-24T04:11:07;17.84;45.70
74792;SHT30;63319;46.046;17.802;2022-12-24T04:14:11;17.83;45.74
74792;SHT30;63319;46.046;17.802;2022-12-24T04:17:14;17.84;45.67
74792;SHT30;63319;46.046;17.802;2022-12-24T04:20:21;17.84;45.76
74792;SHT30;63319;46.046;17.802;2022-12-24T04:23:24;17.84;45.69
74792;SHT30;63319;46.046;17.802;2022-12-24T04:26:27;17.83;45.70
74792;SHT30;63319;46.046;17.802;2022-12-24T04:29:30;17.83;45.68
74792;SHT30;63319;46.046;17.802;2022-12-24T04:32:33;17.84;45.65
74792;SHT30;63319;46.046;17.802;2022-12-24T04:35:40;17.83;45.67
74792;SHT30;63319;46.046;17.802;2022-12-24T04:38:43;17.83;45.74
74792;SHT30;63319;46.046;17.802;2022-12-24T04:41:46;17.81;45.74
74792;SHT30;63319;46.046;17.802;2022-12-24T04:44:50;17.80;45.76
74792;SHT30;63319;46.046;17.802;2022-12-24T04:47:53;17.80;45.76
74792;SHT30;63319;46.046;17.802;2022-12-24T04:51:00;17.81;45.77
74792;SHT30;63319;46.046;17.802;2022-12-24T04:54:04;17.81;45.78
74792;SHT30;63319;46.046;17.802;2022-12-24T04:57:07;17.81;45.80
74792;SHT30;63319;46.046;17.802;2022-12-24T05:00:10;17.84;45.79
74792;SHT30;63319;46.046;17.802;2022-12-24T05:03:13;17.84;45.70
74792;SHT30;63319;46.046;17.802;2022-12-24T05:06:22;17.83;45.70
74792;SHT30;63319;46.046;17.802;2022-12-24T05:09:25;17.81;45.62
74792;SHT30;63319;46.046;17.802;2022-12-24T05:12:28;17.83;45.59
74792;SHT30;63319;46.046;17.802;2022-12-24T05:15:31;17.83;45.70
74792;SHT30;63319;46.046;17.802;2022-12-24T05:18:34;17.83;45.64
74792;SHT30;63319;46.046;17.802;2022-12-24T05:21:38;17.79;45.67
74792;SHT30;63319;46.046;17.802;2022-12-24T05:24:41;17.81;45.75
74792;SHT30;63319;46.046;17.802;2022-12-24T05:28:02;17.81;45.67
74792;SHT30;63319;46.046;17.802;2022-12-24T05:31:05;17.80;45.63
74792;SHT30;63319;46.046;17.802;2022-12-24T05:34:08;17.81;45.69
74792;SHT30;63319;46.046;17.802;2022-12-24T05:37:11;17.81;45.71
74792;SHT30;63319;46.046;17.802;2022-12-24T05:40:14;17.80;45.66
74792;SHT30;63319;46.046;17.802;2022-12-24T05:43:17;17.79;45.73
74792;SHT30;63319;46.046;17.802;2022-12-24T05:46:21;17.79;45.73
74792;SHT30;63319;46.046;17.802;2022-12-24T05:49:24;17.77;45.81
74792;SHT30;63319;46.046;17.802;2022-12-24T05:52:27;17.77;45.75
74792;SHT30;63319;46.046;17.802;2022-12-24T05:55:32;17.79;45.72
74792;SHT30;63319;46.046;17.802;2022-12-24T05:58:35;17.77;45.77
74792;SHT30;63319;46.046;17.802;2022-12-24T06:01:39;17.76;45.80
74792;SHT30;63319;46.046;17.802;2022-12-24T06:04:42;17.77;45.78
74792;SHT30;63319;46.046;17.802;2022-12-24T06:07:45;17.76;45.83
74792;SHT30;63319;46.046;17.802;2022-12-24T06:10:59;17.74;45.78
74792;SHT30;63319;46.046;17.802;2022-12-24T06:14:06;17.74;45.81
74792;SHT30;63319;46.046;17.802;2022-12-24T06:17:14;17.76;45.77
74792;SHT30;63319;46.046;17.802;2022-12-24T06:20:29;17.76;45.78
74792;SHT30;63319;46.046;17.802;2022-12-24T06:23:46;17.74;45.75
74792;SHT30;63319;46.046;17.802;2022-12-24T06:26:49;17.76;45.85
74792;SHT30;63319;46.046;17.802;2022-12-24T06:29:52;17.73;45.80
74792;SHT30;63319;46.046;17.802;2022-12-24T06:32:55;17.71;45.85
74792;SHT30;63319;46.046;17.802;2022-12-24T06:35:58;17.73;45.87
74792;SHT30;63319;46.046;17.802;2022-12-24T06:39:01;17.73;45.82
74792;SHT30;63319;46.046;17.802;2022-12-24T06:42:04;17.70;45.86
74792;SHT30;63319;46.046;17.802;2022-12-24T06:45:07;17.73;45.82
74792;SHT30;63319;46.046;17.802;2022-12-24T06:48:10;17.70;45.86
74792;SHT30;63319;46.046;17.802;2022-12-24T06:51:15;17.71;45.84
74792;SHT30;63319;46.046;17.802;2022-12-24T06:54:36;17.70;45.87
74792;SHT30;63319;46.046;17.802;2022-12-24T06:57:39;17.73;45.88
74792;SHT30;63319;46.046;17.802;2022-12-24T07:00:43;17.71;45.88
74792;SHT30;63319;46.046;17.802;2022-12-24T07:03:46;17.73;45.86
74792;SHT30;63319;46.046;17.802;2022-12-24T07:06:49;17.71;45.90
74792;SHT30;63319;46.046;17.802;2022-12-24T07:09:52;17.73;45.87
74792;SHT30;63319;46.046;17.802;2022-12-24T07:12:55;17.71;45.87
74792;SHT30;63319;46.046;17.802;2022-12-24T07:16:02;17.73;45.78
74792;SHT30;63319;46.046;17.802;2022-12-24T07:19:07;17.73;45.78
74792;SHT30;63319;46.046;17.802;2022-12-24T07:22:10;17.71;45.77
74792;SHT30;63319;46.046;17.802;2022-12-24T07:25:17;17.77;45.74
74792;SHT30;63319;46.046;17.802;2022-12-24T07:28:20;17.76;45.78
74792;SHT30;63319;46.046;17.802;2022-12-24T07:31:29;17.79;45.73
74792;SHT30;63319;46.046;17.802;2022-12-24T07:34:32;17.74;45.77
74792;SHT30;63319;46.046;17.802;2022-12-24T07:37:34;17.74;45.79
74792;SHT30;63319;46.046;17.802;2022-12-24T07:40:37;17.76;45.78
74792;SHT30;63319;46.046;17.802;2022-12-24T07:43:40;17.76;45.70
74792;SHT30;63319;46.046;17.802;2022-12-24T07:46:43;17.76;45.73
74792;SHT30;63319;46.046;17.802;2022-12-24T07:49:46;17.79;45.71
74792;SHT30;63319;46.046;17.802;2022-12-24T07:52:49;17.79;45.61
74792;SHT30;63319;46.046;17.802;2022-12-24T07:55:52;17.81;45.61
74792;SHT30;63319;46.046;17.802;2022-12-24T07:58:55;17.84;45.59
74792;SHT30;63319;46.046;17.802;2022-12-24T08:01:58;17.84;45.57
74792;SHT30;63319;46.046;17.802;2022-12-24T08:05:01;17.87;45.54
74792;SHT30;63319;46.046;17.802;2022-12-24T08:08:04;17.89;45.42
74792;SHT30;63319;46.046;17.802;2022-12-24T08:11:08;17.96;45.30
74792;SHT30;63319;46.046;17.802;2022-12-24T08:14:10;17.94;45.33
74792;SHT30;63319;46.046;17.802;2022-12-24T08:17:13;17.97;45.24
74792;SHT30;63319;46.046;17.802;2022-12-24T08:20:24;18.00;45.20
74792;SHT30;63319;46.046;17.802;2022-12-24T08:23:27;17.97;45.23
74792;SHT30;63319;46.046;17.802;2022-12-24T08:26:29;17.98;45.24
74792;SHT30;63319;46.046;17.802;2022-12-24T08:29:32;17.98;45.24
74792;SHT30;63319;46.046;17.802;2022-12-24T08:32:35;17.97;45.24
74792;SHT30;63319;46.046;17.802;2022-12-24T08:35:38;17.96;45.24
74792;SHT30;63319;46.046;17.802;2022-12-24T08:38:41;18.00;45.29
74792;SHT30;63319;46.046;17.802;2022-12-24T08:41:44;18.00;45.32
74792;SHT30;63319;46.046;17.802;2022-12-24T08:44:47;17.98;45.31
74792;SHT30;63319;46.046;17.802;2022-12-24T08:47:50;18.00;45.30
74792;SHT30;63319;46.046;17.802;2022-12-24T08:50:53;18.01;45.35
74792;SHT30;63319;46.046;17.802;2022-12-24T08:53:56;17.97;45.32
74792;SHT30;63319;46.046;17.802;2022-12-24T08:57:03;17.97;45.35
74792;SHT30;63319;46.046;17.802;2022-12-24T09:00:07;17.98;45.40
74792;SHT30;63319;46.046;17.802;2022-12-24T09:03:13;17.96;45.41
74792;SHT30;63319;46.046;17.802;2022-12-24T09:06:22;17.98;45.44
74792;SHT30;63319;46.046;17.802;2022-12-24T09:09:25;17.98;45.45
74792;SHT30;63319;46.046;17.802;2022-12-24T09:12:39;17.97;45.40
74792;SHT30;63319;46.046;17.802;2022-12-24T09:15:54;17.98;45.44
74792;SHT30;63319;46.046;17.802;2022-12-24T09:19:01;17.97;45.45
74792;SHT30;63319;46.046;17.802;2022-12-24T09:22:04;17.98;45.45
74792;SHT30;63319;46.046;17.802;2022-12-24T09:25:07;17.98;45.44
74792;SHT30;63319;46.046;17.802;2022-12-24T09:28:12;17.97;45.40
74792;SHT30;63319;46.046;17.802;2022-12-24T09:31:15;17.97;45.42
74792;SHT30;63319;46.046;17.802;2022-12-24T09:34:18;17.98;45.44
74792;SHT30;63319;46.046;17.802;2022-12-24T09:37:46;17.97;45.45
74792;SHT30;63319;46.046;17.802;2022-12-24T09:40:49;17.98;45.39
74792;SHT30;63319;46.046;17.802;2022-12-24T09:44:20;17.96;45.46
74792;SHT30;63319;46.046;17.802;2022-12-24T09:51:33;17.96;45.54
74792;SHT30;63319;46.046;17.802;2022-12-24T09:54:40;17.96;45.50
74792;SHT30;63319;46.046;17.802;2022-12-24T09:57:52;17.93;45.48
74792;SHT30;63319;46.046;17.802;2022-12-24T10:00:56;17.97;45.50
74792;SHT30;63319;46.046;17.802;2022-12-24T10:04:04;17.96;45.46
74792;SHT30;63319;46.046;17.802;2022-12-24T10:14:16;18.01;45.32
74792;SHT30;63319;46.046;17.802;2022-12-24T10:17:40;18.01;45.28
74792;SHT30;63319;46.046;17.802;2022-12-24T10:24:25;18.05;45.28
74792;SHT30;63319;46.046;17.802;2022-12-24T10:27:35;18.04;45.29
74792;SHT30;63319;46.046;17.802;2022-12-24T10:30:40;18.02;45.26
74792;SHT30;63319;46.046;17.802;2022-12-24T10:33:47;18.04;45.25
74792;SHT30;63319;46.046;17.802;2022-12-24T10:36:51;18.08;45.25
74792;SHT30;63319;46.046;17.802;2022-12-24T10:39:55;18.08;45.25
74792;SHT30;63319;46.046;17.802;2022-12-24T10:42:59;18.08;45.20
74792;SHT30;63319;46.046;17.802;2022-12-24T10:46:07;18.07;45.21
74792;SHT30;63319;46.046;17.802;2022-12-24T10:49:36;18.07;45.19
74792;SHT30;63319;46.046;17.802;2022-12-24T10:52:42;18.08;45.20
74792;SHT30;63319;46.046;17.802;2022-12-24T10:55:47;18.05;45.23
74792;SHT30;63319;46.046;17.802;2022-12-24T10:58:54;18.05;45.24
74792;SHT30;63319;46.046;17.802;2022-12-24T11:01:58;18.05;45.25
74792;SHT30;63319;46.046;17.802;2022-12-24T11:05:29;18.07;45.25
74792;SHT30;63319;46.046;17.802;2022-12-24T11:08:35;18.02;45.22
74792;SHT30;63319;46.046;17.802;2022-12-24T11:11:38;18.07;45.19
74792;SHT30;63319;46.046;17.802;2022-12-24T11:14:41;18.05;45.24
74792;SHT30;63319;46.046;17.802;2022-12-24T11:18:02;18.07;45.21
74792;SHT30;63319;46.046;17.802;2022-12-24T11:21:06;18.07;45.22
74792;SHT30;63319;46.046;17.802;2022-12-24T11:30:35;18.10;45.14
74792;SHT30;63319;46.046;17.802;2022-12-24T11:33:46;18.10;45.14
74792;SHT30;63319;46.046;17.802;2022-12-24T11:36:50;18.11;45.13
74792;SHT30;63319;46.046;17.802;2022-12-24T11:39:59;18.11;45.08
74792;SHT30;63319;46.046;17.802;2022-12-24T11:43:04;18.17;45.03
74792;SHT30;63319;46.046;17.802;2022-12-24T11:46:19;18.17;44.99
74792;SHT30;63319;46.046;17.802;2022-12-24T11:49:28;18.22;44.92
74792;SHT30;63319;46.046;17.802;2022-12-24T11:52:31;18.24;44.85
74792;SHT30;63319;46.046;17.802;2022-12-24T11:58:50;18.27;44.75
74792;SHT30;63319;46.046;17.802;2022-12-24T12:02:24;18.31;44.76
74792;SHT30;63319;46.046;17.802;2022-12-24T12:05:38;18.29;44.79
74792;SHT30;63319;46.046;17.802;2022-12-24T12:08:41;18.31;44.77
74792;SHT30;63319;46.046;17.802;2022-12-24T12:11:49;18.31;44.85
74792;SHT30;63319;46.046;17.802;2022-12-24T12:14:59;18.28;44.90
74792;SHT30;63319;46.046;17.802;2022-12-24T12:21:14;18.31;44.82
74792;SHT30;63319;46.046;17.802;2022-12-24T12:24:25;18.28;44.87
74792;SHT30;63319;46.046;17.802;2022-12-24T12:27:40;18.28;44.83
74792;SHT30;63319;46.046;17.802;2022-12-24T12:30:46;18.27;44.90
74792;SHT30;63319;46.046;17.802;2022-12-24T12:34:29;18.24;44.92
74792;SHT30;63319;46.046;17.802;2022-12-24T12:37:39;18.22;45.06
74792;SHT30;63319;46.046;17.802;2022-12-24T12:57:07;18.25;44.91
74792;SHT30;63319;46.046;17.802;2022-12-24T13:00:15;18.22;44.93
74792;SHT30;63319;46.046;17.802;2022-12-24T13:03:38;18.25;44.90
74792;SHT30;63319;46.046;17.802;2022-12-24T13:20:32;18.28;44.83
74792;SHT30;63319;46.046;17.802;2022-12-24T13:23:38;18.28;44.82
74792;SHT30;63319;46.046;17.802;2022-12-24T13:26:41;18.29;44.80
74792;SHT30;63319;46.046;17.802;2022-12-24T13:29:52;18.28;44.84
74792;SHT30;63319;46.046;17.802;2022-12-24T13:32:55;18.29;44.83
74792;SHT30;63319;46.046;17.802;2022-12-24T13:36:11;18.28;44.85
74792;SHT30;63319;46.046;17.802;2022-12-24T13:39:18;18.27;44.90
74792;SHT30;63319;46.046;17.802;2022-12-24T13:45:50;18.25;44.86
74792;SHT30;63319;46.046;17.802;2022-12-24T13:48:53;18.24;44.90
74792;SHT30;63319;46.046;17.802;2022-12-24T13:55:15;18.24;44.93
74792;SHT30;63319;46.046;17.802;2022-12-24T13:58:18;18.24;44.89
74792;SHT30;63319;46.046;17.802;2022-12-24T14:01:35;18.22;44.95
74792;SHT30;63319;46.046;17.802;2022-12-24T14:04:39;18.21;45.05
74792;SHT30;63319;46.046;17.802;2022-12-24T14:07:46;18.22;44.95
74792;SHT30;63319;46.046;17.802;2022-12-24T14:11:19;18.22;44.98
74792;SHT30;63319;46.046;17.802;2022-12-24T14:14:30;18.19;44.98
74792;SHT30;63319;46.046;17.802;2022-12-24T14:17:34;18.19;44.96
74792;SHT30;63319;46.046;17.802;2022-12-24T14:20:37;18.19;45.05
74792;SHT30;63319;46.046;17.802;2022-12-24T14:26:52;18.17;45.08
74792;SHT30;63319;46.046;17.802;2022-12-24T14:33:30;18.14;45.05
74792;SHT30;63319;46.046;17.802;2022-12-24T14:36:34;18.17;45.13
74792;SHT30;63319;46.046;17.802;2022-12-24T14:39:42;18.15;45.09
74792;SHT30;63319;46.046;17.802;2022-12-24T14:43:19;18.12;45.13
74792;SHT30;63319;46.046;17.802;2022-12-24T14:49:43;18.10;45.24
74792;SHT30;63319;46.046;17.802;2022-12-24T14:53:06;18.10;45.24
74792;SHT30;63319;46.046;17.802;2022-12-24T14:56:21;18.10;45.28
74792;SHT30;63319;46.046;17.802;2022-12-24T14:59:27;18.08;45.30
74792;SHT30;63319;46.046;17.802;2022-12-24T15:05:35;18.04;45.30
74792;SHT30;63319;46.046;17.802;2022-12-24T15:08:43;18.02;45.40
74792;SHT30;63319;46.046;17.802;2022-12-24T15:11:49;18.01;45.35
74792;SHT30;63319;46.046;17.802;2022-12-24T15:14:52;18.01;45.42
74792;SHT30;63319;46.046;17.802;2022-12-24T15:17:56;17.98;45.46
74792;SHT30;63319;46.046;17.802;2022-12-24T15:21:03;17.97;45.46
74792;SHT30;63319;46.046;17.802;2022-12-24T15:24:29;17.96;45.54
74792;SHT30;63319;46.046;17.802;2022-12-24T15:27:38;17.93;45.56
74792;SHT30;63319;46.046;17.802;2022-12-24T15:30:41;17.91;45.61
74792;SHT30;63319;46.046;17.802;2022-12-24T15:33:44;17.91;45.55
74792;SHT30;63319;46.046;17.802;2022-12-24T15:36:47;17.91;45.58
74792;SHT30;63319;46.046;17.802;2022-12-24T15:39:56;17.90;45.64
74792;SHT30;63319;46.046;17.802;2022-12-24T15:43:00;17.90;45.64
74792;SHT30;63319;46.046;17.802;2022-12-24T15:46:03;17.91;45.65
74792;SHT30;63319;46.046;17.802;2022-12-24T15:49:14;17.86;45.65
74792;SHT30;63319;46.046;17.802;2022-12-24T15:52:20;17.87;45.66
74792;SHT30;63319;46.046;17.802;2022-12-24T15:55:44;17.84;45.74
74792;SHT30;63319;46.046;17.802;2022-12-24T15:58:47;17.84;45.67
74792;SHT30;63319;46.046;17.802;2022-12-24T16:01:50;17.83;45.75
74792;SHT30;63319;46.046;17.802;2022-12-24T16:04:53;17.84;45.72
74792;SHT30;63319;46.046;17.802;2022-12-24T16:08:00;17.83;45.76
74792;SHT30;63319;46.046;17.802;2022-12-24T16:11:15;17.83;45.76
74792;SHT30;63319;46.046;17.802;2022-12-24T16:14:20;17.81;45.77
74792;SHT30;63319;46.046;17.802;2022-12-24T16:17:26;17.81;45.79
74792;SHT30;63319;46.046;17.802;2022-12-24T16:20:30;17.79;45.81
74792;SHT30;63319;46.046;17.802;2022-12-24T16:23:46;17.77;45.86
74792;SHT30;63319;46.046;17.802;2022-12-24T16:26:50;17.79;45.82
74792;SHT30;63319;46.046;17.802;2022-12-24T16:29:53;17.73;45.90
74792;SHT30;63319;46.046;17.802;2022-12-24T16:32:56;17.76;45.94
74792;SHT30;63319;46.046;17.802;2022-12-24T16:35:59;17.76;45.90
74792;SHT30;63319;46.046;17.802;2022-12-24T16:39:02;17.73;45.92
74792;SHT30;63319;46.046;17.802;2022-12-24T16:42:27;17.74;45.92
74792;SHT30;63319;46.046;17.802;2022-12-24T16:45:51;17.74;45.91
74792;SHT30;63319;46.046;17.802;2022-12-24T16:48:56;17.73;45.97
74792;SHT30;63319;46.046;17.802;2022-12-24T16:51:58;17.71;45.97
74792;SHT30;63319;46.046;17.802;2022-12-24T16:55:02;17.71;46.01
74792;SHT30;63319;46.046;17.802;2022-12-24T16:58:05;17.69;46.04
74792;SHT30;63319;46.046;17.802;2022-12-24T17:01:08;17.69;46.09
74792;SHT30;63319;46.046;17.802;2022-12-24T17:04:12;17.69;46.04
74792;SHT30;63319;46.046;17.802;2022-12-24T17:07:17;17.69;46.07
74792;SHT30;63319;46.046;17.802;2022-12-24T17:10:20;17.66;46.08
74792;SHT30;63319;46.046;17.802;2022-12-24T17:13:23;17.66;46.07
74792;SHT30;63319;46.046;17.802;2022-12-24T17:16:26;17.65;46.10
74792;SHT30;63319;46.046;17.802;2022-12-24T17:19:30;17.65;46.13
74792;SHT30;63319;46.046;17.802;2022-12-24T17:22:33;17.63;46.11
74792;SHT30;63319;46.046;17.802;2022-12-24T17:25:37;17.60;46.12
74792;SHT30;63319;46.046;17.802;2022-12-24T17:28:43;17.59;46.17
74792;SHT30;63319;46.046;17.802;2022-12-24T17:31:51;17.60;46.19
74792;SHT30;63319;46.046;17.802;2022-12-24T17:34:58;17.57;46.23
74792;SHT30;63319;46.046;17.802;2022-12-24T17:38:01;17.56;46.25
74792;SHT30;63319;46.046;17.802;2022-12-24T17:41:06;17.56;46.19
74792;SHT30;63319;46.046;17.802;2022-12-24T17:44:12;17.53;46.29
74792;SHT30;63319;46.046;17.802;2022-12-24T17:47:14;17.53;46.31
74792;SHT30;63319;46.046;17.802;2022-12-24T17:50:17;17.54;46.28
74792;SHT30;63319;46.046;17.802;2022-12-24T17:53:20;17.52;46.31
74792;SHT30;63319;46.046;17.802;2022-12-24T17:56:23;17.54;46.32
74792;SHT30;63319;46.046;17.802;2022-12-24T17:59:26;17.50;46.34
74792;SHT30;63319;46.046;17.802;2022-12-24T18:02:29;17.49;46.35
74792;SHT30;63319;46.046;17.802;2022-12-24T18:05:33;17.49;46.40
74792;SHT30;63319;46.046;17.802;2022-12-24T18:08:37;17.47;46.40
74792;SHT30;63319;46.046;17.802;2022-12-24T18:11:40;17.45;46.42
74792;SHT30;63319;46.046;17.802;2022-12-24T18:14:43;17.43;46.44
74792;SHT30;63319;46.046;17.802;2022-12-24T18:17:54;17.42;46.42
74792;SHT30;63319;46.046;17.802;2022-12-24T18:20:57;17.46;46.45
74792;SHT30;63319;46.046;17.802;2022-12-24T18:24:03;17.42;46.45
74792;SHT30;63319;46.046;17.802;2022-12-24T18:27:06;17.42;46.53
74792;SHT30;63319;46.046;17.802;2022-12-24T18:30:09;17.40;46.51
74792;SHT30;63319;46.046;17.802;2022-12-24T18:33:12;17.38;46.56
74792;SHT30;63319;46.046;17.802;2022-12-24T18:36:16;17.39;46.58
74792;SHT30;63319;46.046;17.802;2022-12-24T18:39:19;17.35;46.62
74792;SHT30;63319;46.046;17.802;2022-12-24T18:42:22;17.35;46.64
74792;SHT30;63319;46.046;17.802;2022-12-24T18:45:25;17.33;46.62
74792;SHT30;63319;46.046;17.802;2022-12-24T18:48:28;17.36;46.64
74792;SHT30;63319;46.046;17.802;2022-12-24T18:51:33;17.36;46.64
74792;SHT30;63319;46.046;17.802;2022-12-24T18:54:39;17.32;46.60
74792;SHT30;63319;46.046;17.802;2022-12-24T18:57:42;17.31;46.69
74792;SHT30;63319;46.046;17.802;2022-12-24T19:00:45;17.29;46.69
74792;SHT30;63319;46.046;17.802;2022-12-24T19:03:48;17.28;46.73
74792;SHT30;63319;46.046;17.802;2022-12-24T19:06:52;17.26;46.71
74792;SHT30;63319;46.046;17.802;2022-12-24T19:09:55;17.29;46.74
74792;SHT30;63319;46.046;17.802;2022-12-24T19:12:57;17.29;46.72
74792;SHT30;63319;46.046;17.802;2022-12-24T19:16:03;17.25;46.77
74792;SHT30;63319;46.046;17.802;2022-12-24T19:19:09;17.26;46.81
74792;SHT30;63319;46.046;17.802;2022-12-24T19:22:12;17.25;46.74
74792;SHT30;63319;46.046;17.802;2022-12-24T19:25:15;17.25;46.78
74792;SHT30;63319;46.046;17.802;2022-12-24T19:28:18;17.21;46.77
74792;SHT30;63319;46.046;17.802;2022-12-24T19:31:27;17.21;46.80
74792;SHT30;63319;46.046;17.802;2022-12-24T19:34:30;17.21;46.84
74792;SHT30;63319;46.046;17.802;2022-12-24T19:37:33;17.19;46.83
74792;SHT30;63319;46.046;17.802;2022-12-24T19:40:36;17.18;46.86
74792;SHT30;63319;46.046;17.802;2022-12-24T19:43:45;17.18;46.86
74792;SHT30;63319;46.046;17.802;2022-12-24T19:46:48;17.19;46.91
74792;SHT30;63319;46.046;17.802;2022-12-24T19:49:51;17.16;46.87
74792;SHT30;63319;46.046;17.802;2022-12-24T19:52:53;17.18;46.88
74792;SHT30;63319;46.046;17.802;2022-12-24T19:55:57;17.16;46.88
74792;SHT30;63319;46.046;17.802;2022-12-24T19:59:02;17.15;46.90
74792;SHT30;63319;46.046;17.802;2022-12-24T20:02:05;17.14;46.99
74792;SHT30;63319;46.046;17.802;2022-12-24T20:05:08;17.14;46.95
74792;SHT30;63319;46.046;17.802;2022-12-24T20:08:11;17.12;46.87
74792;SHT30;63319;46.046;17.802;2022-12-24T20:11:17;17.11;46.93
74792;SHT30;63319;46.046;17.802;2022-12-24T20:14:20;17.11;46.91
74792;SHT30;63319;46.046;17.802;2022-12-24T20:17:23;17.10;46.88
74792;SHT30;63319;46.046;17.802;2022-12-24T20:20:26;17.07;46.91
74792;SHT30;63319;46.046;17.802;2022-12-24T20:23:29;17.05;46.96
74792;SHT30;63319;46.046;17.802;2022-12-24T20:26:33;17.04;46.96
74792;SHT30;63319;46.046;17.802;2022-12-24T20:29:35;17.04;47.06
74792;SHT30;63319;46.046;17.802;2022-12-24T20:32:38;17.05;46.88
74792;SHT30;63319;46.046;17.802;2022-12-24T20:35:41;17.02;46.97
74792;SHT30;63319;46.046;17.802;2022-12-24T20:38:44;17.05;47.00
74792;SHT30;63319;46.046;17.802;2022-12-24T20:41:47;17.04;47.08
74792;SHT30;63319;46.046;17.802;2022-12-24T20:44:50;17.02;47.01
74792;SHT30;63319;46.046;17.802;2022-12-24T20:47:53;17.00;47.02
74792;SHT30;63319;46.046;17.802;2022-12-24T20:50:56;17.01;47.02
74792;SHT30;63319;46.046;17.802;2022-12-24T20:53:59;17.01;46.99
74792;SHT30;63319;46.046;17.802;2022-12-24T20:57:03;17.01;46.95
74792;SHT30;63319;46.046;17.802;2022-12-24T21:00:07;17.00;47.01
74792;SHT30;63319;46.046;17.802;2022-12-24T21:03:10;17.00;46.99
74792;SHT30;63319;46.046;17.802;2022-12-24T21:06:13;16.96;46.99